createdAt,value
2022-11-07T06:57:01.600Z,97206.97
2022-11-07T06:59:29.760Z,97210.19
2022-11-07T07:01:57.795Z,97208.34
2022-11-07T07:04:25.939Z,97210.22
2022-11-07T07:06:54.038Z,97216.38
2022-11-07T07:09:22.132Z,97209.50
2022-11-07T07:11:50.125Z,97222.38
2022-11-07T07:14:19.551Z,97228.31
2022-11-07T07:16:47.563Z,97232.34
2022-11-07T07:19:15.661Z,97227.59
2022-11-07T07:21:43.725Z,97236.94
2022-11-07T07:24:11.782Z,97229.53
2022-11-07T07:26:39.841Z,97223.38
2022-11-07T07:29:07.858Z,97216.75
2022-11-07T07:31:37.233Z,97220.75
2022-11-07T07:34:06.296Z,97214.34
2022-11-07T07:36:34.347Z,97217.56
2022-11-07T07:39:02.324Z,97221.56
2022-11-07T07:41:30.428Z,97234.94
2022-11-07T07:43:58.454Z,97229.56
2022-11-07T07:46:26.662Z,97220.78
2022-11-07T07:48:56.104Z,97217.84
2022-11-07T07:51:24.121Z,97227.97
2022-11-07T07:53:52.168Z,97225.28
2022-11-07T07:56:20.367Z,97234.66
2022-11-07T07:58:48.437Z,97224.75
2022-11-07T08:01:16.594Z,97225.28
2022-11-07T08:04:00.864Z,97234.34
2022-11-07T08:06:32.467Z,97238.09
2022-11-07T08:09:00.539Z,97229.53
2022-11-07T08:11:28.603Z,97222.00
2022-11-07T08:14:01.046Z,97222.00
2022-11-07T08:16:29.769Z,97227.84
2022-11-07T08:18:57.852Z,97228.88
2022-11-07T08:21:25.890Z,97224.28
2022-11-07T08:23:56.369Z,97228.56
2022-11-07T08:26:24.484Z,97223.94
2022-11-07T08:28:54.542Z,97237.31
2022-11-07T08:31:22.929Z,97229.19
2022-11-07T08:33:50.991Z,97221.66
2022-11-07T08:36:19.151Z,97222.66
2022-11-07T08:38:47.123Z,97233.34
2022-11-07T08:41:21.792Z,97232.72
2022-11-07T08:43:50.356Z,97234.78
2022-11-07T08:46:18.466Z,97244.13
2022-11-07T08:48:46.460Z,97235.44
2022-11-07T08:51:14.462Z,97243.94
2022-11-07T08:53:42.484Z,97237.41
2022-11-07T08:56:11.370Z,97237.66
2022-11-07T08:58:40.799Z,97238.06
2022-11-07T09:01:09.784Z,97242.25
2022-11-07T09:03:49.234Z,97235.91
2022-11-07T09:06:21.268Z,97236.69
2022-11-07T09:08:49.322Z,97237.03
2022-11-07T09:11:18.990Z,97237.25
2022-11-07T09:13:48.998Z,97244.19
2022-11-07T09:16:18.245Z,97242.53
2022-11-07T09:18:46.493Z,97250.53
2022-11-07T09:21:20.717Z,97251.22
2022-11-07T09:23:50.403Z,97249.19
2022-11-07T09:26:18.446Z,97246.34
2022-11-07T09:28:52.110Z,97250.22
2022-11-07T09:31:21.063Z,97249.72
2022-11-07T09:33:49.253Z,97241.81
2022-11-07T09:36:17.315Z,97247.25
2022-11-07T09:38:45.338Z,97241.63
2022-11-07T09:41:19.709Z,97246.97
2022-11-07T09:44:14.516Z,97242.91
2022-11-07T09:46:55.140Z,97242.47
2022-11-07T09:49:25.757Z,97234.31
2022-11-07T09:51:57.716Z,97238.00
2022-11-07T09:54:29.068Z,97245.50
2022-11-07T09:56:59.471Z,97242.19
2022-11-07T09:59:33.244Z,97230.22
2022-11-07T10:02:04.784Z,97228.66
2022-11-07T10:04:32.964Z,97224.16
2022-11-07T10:07:05.576Z,97229.34
2022-11-07T10:09:40.736Z,97236.22
2022-11-07T10:12:19.086Z,97229.34
2022-11-07T10:14:55.292Z,97238.72
2022-11-07T10:17:29.412Z,97234.91
2022-11-07T10:20:09.373Z,97235.31
2022-11-07T10:22:46.814Z,97238.22
2022-11-07T10:25:21.136Z,97235.31
2022-11-07T10:27:53.554Z,97233.81
2022-11-07T10:30:22.967Z,97231.78
2022-11-07T10:32:58.302Z,97230.06
2022-11-07T10:35:30.211Z,97240.44
2022-11-07T10:37:59.543Z,97241.53
2022-11-07T10:40:33.496Z,97233.28
2022-11-07T10:43:02.875Z,97238.06
2022-11-07T10:45:32.902Z,97235.28
2022-11-07T10:48:02.661Z,97232.84
2022-11-07T10:50:31.215Z,97228.84
2022-11-07T10:53:01.216Z,97233.94
2022-11-07T10:55:30.238Z,97228.44
2022-11-07T10:58:00.687Z,97220.88
2022-11-07T11:00:30.501Z,97222.63
2022-11-07T11:03:00.377Z,97232.19
2022-11-07T11:05:33.028Z,97233.19
2022-11-07T11:08:14.167Z,97228.38
2022-11-07T11:10:42.822Z,97226.19
2022-11-07T11:13:28.864Z,97218.66
2022-11-07T11:16:04.296Z,97220.25
2022-11-07T11:18:35.102Z,97220.75
2022-11-07T11:21:06.027Z,97226.31
2022-11-07T11:23:37.559Z,97218.72
2022-11-07T11:26:08.444Z,97217.31
2022-11-07T11:28:42.237Z,97218.19
2022-11-07T11:31:14.003Z,97214.38
2022-11-07T11:33:46.100Z,97217.22
2022-11-07T11:36:19.282Z,97213.50
2022-11-07T11:38:54.430Z,97213.00
2022-11-07T11:41:26.475Z,97208.59
2022-11-07T11:43:58.248Z,97212.34
2022-11-07T11:46:29.972Z,97207.75
2022-11-07T11:49:02.476Z,97206.88
2022-11-07T11:51:38.009Z,97199.88
2022-11-07T11:54:09.033Z,97201.06
2022-11-07T11:56:52.270Z,97200.81
2022-11-07T11:59:43.982Z,97190.66
2022-11-07T12:02:42.179Z,97185.84
2022-11-07T12:05:20.870Z,97180.06
2022-11-07T12:07:56.462Z,97182.00
2022-11-07T12:10:27.449Z,97184.75
2022-11-07T12:15:26.855Z,97177.53
2022-11-07T12:18:00.861Z,97175.44
2022-11-07T12:20:31.921Z,97186.72
2022-11-07T12:23:13.152Z,97174.94
2022-11-07T12:25:44.734Z,97181.56
2022-11-07T12:28:27.134Z,97182.19
2022-11-07T12:31:04.112Z,97165.88
2022-11-07T12:33:37.766Z,97170.53
2022-11-07T12:36:12.667Z,97173.75
2022-11-07T12:38:57.372Z,97162.66
2022-11-07T12:41:32.517Z,97159.00
2022-11-07T12:44:08.938Z,97152.50
2022-11-07T12:46:46.633Z,97149.50
2022-11-07T12:49:47.856Z,97138.72
2022-11-07T12:52:39.596Z,97146.19
2022-11-07T12:55:18.418Z,97138.22
2022-11-07T12:57:47.332Z,97136.94
2022-11-07T13:00:23.411Z,97140.88
2022-11-07T13:04:06.812Z,97140.38
2022-11-07T13:06:37.505Z,97141.88
2022-11-07T13:09:14.063Z,97135.34
2022-11-07T13:11:46.799Z,97129.16
2022-11-07T13:14:27.685Z,97138.56
2022-11-07T13:17:13.330Z,97138.56
2022-11-07T13:19:44.402Z,97143.69
2022-11-07T13:22:24.384Z,97137.94
2022-11-07T13:24:55.014Z,97137.94
2022-11-07T13:27:24.561Z,97137.44
2022-11-07T13:29:52.959Z,97137.59
2022-11-07T13:32:21.112Z,97136.78
2022-11-07T13:34:56.770Z,97141.13
2022-11-07T13:37:27.836Z,97137.47
2022-11-07T13:39:59.642Z,97143.28
2022-11-07T13:42:29.407Z,97150.59
2022-11-07T13:44:58.366Z,97152.88
2022-11-07T13:47:32.622Z,97152.09
2022-11-07T13:50:08.119Z,97145.28
2022-11-07T13:52:41.658Z,97151.44
2022-11-07T13:55:13.780Z,97150.63
2022-11-07T13:57:42.885Z,97150.28
2022-11-07T14:00:14.743Z,97155.19
2022-11-07T14:02:52.182Z,97156.78
2022-11-07T14:05:23.849Z,97169.94
2022-11-07T14:07:55.204Z,97172.69
2022-11-07T14:10:26.394Z,97172.19
2022-11-07T14:13:00.152Z,97178.25
2022-11-07T14:15:28.174Z,97175.34
2022-11-07T14:17:56.272Z,97182.00
2022-11-07T14:20:25.798Z,97175.00
2022-11-07T14:22:56.127Z,97168.84
2022-11-07T14:25:27.544Z,97170.25
2022-11-07T14:27:56.315Z,97159.44
2022-11-07T14:30:25.890Z,97164.56
2022-11-07T14:32:55.589Z,97171.19
2022-11-07T14:35:29.355Z,97165.34
2022-11-07T14:37:57.778Z,97167.66
2022-11-07T14:40:26.035Z,97162.75
2022-11-07T14:42:55.015Z,97166.75
2022-11-07T14:45:47.173Z,97172.00
2022-11-07T14:48:13.479Z,97168.88
2022-11-07T14:50:43.237Z,97166.47
2022-11-07T14:53:15.881Z,97168.06
2022-11-07T14:55:46.014Z,97170.59
2022-11-07T14:58:14.728Z,97166.19
2022-11-07T15:00:53.068Z,97157.09
2022-11-07T15:03:23.269Z,97155.28
2022-11-07T15:05:53.363Z,97155.47
2022-11-07T15:08:29.892Z,97156.72
2022-11-07T15:11:03.027Z,97165.28
2022-11-07T15:13:33.328Z,97158.09
2022-11-07T15:16:04.560Z,97157.09
2022-11-07T15:18:35.547Z,97158.47
2022-11-07T15:21:11.632Z,97159.81
2022-11-07T15:23:39.806Z,97157.16
2022-11-07T15:26:12.485Z,97164.28
2022-11-07T15:28:48.353Z,97159.97
2022-11-07T15:31:22.164Z,97152.56
2022-11-07T15:33:50.597Z,97155.50
2022-11-07T15:36:20.397Z,97157.94
2022-11-07T15:38:49.148Z,97150.44
2022-11-07T15:41:17.205Z,97161.25
2022-11-07T15:43:45.307Z,97162.75
2022-11-07T15:46:26.125Z,97165.84
2022-11-07T15:48:54.274Z,97168.47
2022-11-07T15:51:23.783Z,97168.97
2022-11-07T15:53:51.822Z,97173.50
2022-11-07T15:56:22.180Z,97168.97
2022-11-07T15:59:18.045Z,97170.59
2022-11-07T16:01:46.669Z,97173.00
2022-11-07T16:04:15.106Z,97174.31
2022-11-07T16:06:46.169Z,97162.13
2022-11-07T16:09:17.661Z,97169.03
2022-11-07T16:11:45.747Z,97176.06
2022-11-07T16:14:42.227Z,97165.28
2022-11-07T16:17:03.618Z,97176.06
2022-11-07T16:19:32.160Z,97179.47
2022-11-07T16:22:01.504Z,97175.38
2022-11-07T16:24:29.580Z,97178.38
2022-11-07T16:26:57.620Z,97177.06
2022-11-07T16:29:25.790Z,97177.66
2022-11-07T16:31:53.863Z,97176.88
2022-11-07T16:34:21.897Z,97178.84
2022-11-07T16:36:50.057Z,97174.88
2022-11-07T16:39:21.566Z,97181.22
2022-11-07T16:41:50.287Z,97175.72
2022-11-07T16:44:43.032Z,97188.63
2022-11-07T16:47:14.655Z,97190.81
2022-11-07T16:49:42.689Z,97191.44
2022-11-07T16:52:14.511Z,97185.03
2022-11-07T16:54:43.976Z,97190.34
2022-11-07T16:57:13.254Z,97183.66
2022-11-07T16:59:41.261Z,97187.25
2022-11-07T17:02:20.410Z,97179.47
2022-11-07T17:04:50.588Z,97176.28
2022-11-07T17:07:19.914Z,97177.69
2022-11-07T17:09:49.336Z,97174.78
2022-11-07T17:12:19.452Z,97177.28
2022-11-07T17:14:47.796Z,97175.19
2022-11-07T17:17:17.129Z,97180.38
2022-11-07T17:19:45.358Z,97174.50
2022-11-07T17:22:13.840Z,97178.88
2022-11-07T17:24:43.013Z,97180.06
2022-11-07T17:27:20.665Z,97181.75
2022-11-07T17:29:48.758Z,97188.84
2022-11-07T17:32:16.752Z,97184.63
2022-11-07T17:34:44.880Z,97191.19
2022-11-07T17:37:15.567Z,97189.78
2022-11-07T17:39:45.504Z,97185.59
2022-11-07T17:42:14.995Z,97182.97
2022-11-07T17:44:43.072Z,97185.75
2022-11-07T17:47:29.572Z,97188.53
2022-11-07T17:49:57.758Z,97188.03
2022-11-07T17:52:25.860Z,97192.69
2022-11-07T17:54:54.884Z,97197.88
2022-11-07T17:57:24.267Z,97193.66
2022-11-07T17:59:52.400Z,97186.78
2022-11-07T18:02:21.166Z,97191.00
2022-11-07T18:04:49.411Z,97186.59
2022-11-07T18:07:18.105Z,97181.78
2022-11-07T18:09:46.287Z,97186.69
2022-11-07T18:12:14.355Z,97182.22
2022-11-07T18:14:43.767Z,97176.72
2022-11-07T18:17:11.846Z,97180.50
2022-11-07T18:19:39.860Z,97185.66
2022-11-07T18:22:07.874Z,97181.66
2022-11-07T18:24:35.875Z,97180.06
2022-11-07T18:27:09.310Z,97178.47
2022-11-07T18:29:39.923Z,97168.59
2022-11-07T18:32:09.314Z,97172.66
2022-11-07T18:34:37.391Z,97165.19
2022-11-07T18:37:05.579Z,97169.66
2022-11-07T18:39:33.840Z,97164.88
2022-11-07T18:42:01.886Z,97174.03
2022-11-07T18:44:55.347Z,97179.22
2022-11-07T18:47:24.960Z,97180.03
2022-11-07T18:49:57.086Z,97178.41
2022-11-07T18:52:25.406Z,97176.03
2022-11-07T18:54:54.165Z,97170.41
2022-11-07T18:57:22.242Z,97176.91
2022-11-07T18:59:50.363Z,97184.25
2022-11-07T19:02:18.518Z,97183.22
2022-11-07T19:04:48.004Z,97174.97
2022-11-07T19:07:16.036Z,97184.16
2022-11-07T19:09:44.024Z,97185.28
2022-11-07T19:12:12.070Z,97180.28
2022-11-07T19:14:40.124Z,97179.28
2022-11-07T19:17:08.233Z,97178.53
2022-11-07T19:19:36.446Z,97171.56
2022-11-07T19:22:06.651Z,97181.50
2022-11-07T19:24:35.622Z,97182.34
2022-11-07T19:27:03.623Z,97177.03
2022-11-07T19:29:31.901Z,97180.84
2022-11-07T19:31:59.978Z,97183.06
2022-11-07T19:34:28.216Z,97184.72
2022-11-07T19:36:56.616Z,97189.88
2022-11-07T19:39:26.084Z,97182.13
2022-11-07T19:41:54.128Z,97188.03
2022-11-07T19:44:22.084Z,97180.09
2022-11-07T19:46:50.130Z,97179.09
2022-11-07T19:49:18.188Z,97186.06
2022-11-07T19:51:46.238Z,97185.56
2022-11-07T19:54:14.314Z,97187.75
2022-11-07T19:56:43.897Z,97181.31
2022-11-07T19:59:11.948Z,97185.88
2022-11-07T20:01:40.397Z,97184.06
2022-11-07T20:04:09.844Z,97187.53
2022-11-07T20:06:39.921Z,97191.81
2022-11-07T20:09:09.377Z,97191.44
2022-11-07T20:11:37.872Z,97201.69
2022-11-07T20:14:07.589Z,97201.50
2022-11-07T20:16:37.517Z,97204.19
2022-11-07T20:19:05.866Z,97206.31
2022-11-07T20:21:34.449Z,97210.03
2022-11-07T20:24:02.488Z,97204.13
2022-11-07T20:26:31.807Z,97205.50
2022-11-07T20:29:00.402Z,97204.19
2022-11-07T20:31:32.724Z,97211.41
2022-11-07T20:34:01.277Z,97208.47
2022-11-07T20:36:31.216Z,97205.81
2022-11-07T20:38:59.975Z,97210.66
2022-11-07T20:41:28.629Z,97205.84
2022-11-07T20:43:57.324Z,97198.38
2022-11-07T20:46:25.549Z,97204.81
2022-11-07T20:48:55.221Z,97205.31
2022-11-07T20:51:25.249Z,97202.13
2022-11-07T20:53:54.615Z,97203.25
2022-11-07T20:56:23.836Z,97208.09
2022-11-07T20:58:52.096Z,97203.03
2022-11-07T21:01:21.950Z,97209.72
2022-11-07T21:03:50.486Z,97209.69
2022-11-07T21:06:20.472Z,97207.53
2022-11-07T21:08:50.230Z,97207.53
2022-11-07T21:11:18.640Z,97207.56
2022-11-07T21:13:52.782Z,97207.31
2022-11-07T21:16:22.179Z,97207.03
2022-11-07T21:18:50.440Z,97217.75
2022-11-07T21:21:21.276Z,97219.63
2022-11-07T21:23:50.017Z,97218.31
2022-11-07T21:26:19.358Z,97219.38
2022-11-07T21:28:47.447Z,97207.31
2022-11-07T21:31:18.143Z,97211.09
2022-11-07T21:33:47.692Z,97225.25
2022-11-07T21:36:20.523Z,97213.25
2022-11-07T21:38:49.865Z,97209.25
2022-11-07T21:41:18.146Z,97221.25
2022-11-07T21:43:46.269Z,97215.66
2022-11-07T21:46:16.257Z,97213.28
2022-11-07T21:48:44.291Z,97213.53
2022-11-07T21:51:14.843Z,97211.16
2022-11-07T21:53:43.199Z,97210.34
2022-11-07T21:56:15.614Z,97215.16
2022-11-07T21:58:43.622Z,97216.78
2022-11-07T22:01:11.824Z,97213.03
2022-11-07T22:06:27.928Z,97214.09
2022-11-07T22:08:56.086Z,97222.09
2022-11-07T22:11:25.463Z,97224.25
2022-11-07T22:13:53.527Z,97220.25
2022-11-07T22:16:22.531Z,97213.53
2022-11-07T22:18:50.744Z,97224.53
2022-11-07T22:21:21.040Z,97226.09
2022-11-07T22:23:49.507Z,97225.84
2022-11-07T22:26:22.299Z,97217.84
2022-11-07T22:28:51.883Z,97226.09
2022-11-07T22:31:22.425Z,97215.97
2022-11-07T22:33:51.621Z,97223.94
2022-11-07T22:36:20.021Z,97224.25
2022-11-07T22:38:48.165Z,97219.97
2022-11-07T22:41:18.378Z,97218.34
2022-11-07T22:43:46.587Z,97211.16
2022-11-07T22:46:17.818Z,97213.56
2022-11-07T22:48:46.916Z,97212.47
2022-11-07T22:51:16.018Z,97206.59
2022-11-07T22:53:44.029Z,97201.22
2022-11-07T22:56:13.192Z,97208.16
2022-11-07T22:58:41.589Z,97198.56
2022-11-07T23:01:16.570Z,97207.13
2022-11-07T23:03:44.635Z,97205.50
2022-11-07T23:06:12.625Z,97205.50
2022-11-07T23:08:40.926Z,97202.59
2022-11-07T23:11:44.870Z,97201.22
2022-11-07T23:14:02.613Z,97195.31
2022-11-07T23:16:33.477Z,97193.16
2022-11-07T23:19:03.134Z,97202.25
2022-11-07T23:21:31.476Z,97198.00
2022-11-07T23:24:00.585Z,97197.69
2022-11-07T23:26:33.835Z,97198.50
2022-11-07T23:29:09.013Z,97199.03
2022-11-07T23:31:40.328Z,97193.13
2022-11-07T23:34:08.700Z,97196.34
2022-11-07T23:36:37.296Z,97187.25
2022-11-07T23:39:06.452Z,97187.53
2022-11-07T23:41:34.889Z,97189.41
2022-11-07T23:44:03.179Z,97183.00
2022-11-07T23:46:48.758Z,97182.72
2022-11-07T23:49:35.518Z,97184.88
2022-11-07T23:52:03.703Z,97177.13
2022-11-07T23:54:49.552Z,97186.41
2022-11-07T23:57:17.502Z,97185.63
